sensor_id;sensor_type;location;lat;lon;timestamp;pressure;altitude;pressure_sealevel;temperature;humidity
69911;BME280;63555;49.920;17.868;2023-01-26T00:01:41;99377.03;;;-0.44;93.74
69911;BME280;63555;49.920;17.868;2023-01-26T00:06:43;99377.16;;;-0.50;93.67
69911;BME280;63555;49.920;17.868;2023-01-26T00:11:44;99377.34;;;-0.59;93.26
69911;BME280;63555;49.920;17.868;2023-01-26T00:16:44;99364.53;;;-0.65;93.49
69911;BME280;63555;49.920;17.868;2023-01-26T00:21:44;99357.63;;;-0.66;93.64
69911;BME280;63555;49.920;17.868;2023-01-26T00:26:45;99349.19;;;-0.74;93.27
69911;BME280;63555;49.920;17.868;2023-01-26T00:31:45;99340.59;;;-0.76;93.68
69911;BME280;63555;49.920;17.868;2023-01-26T00:36:45;99339.69;;;-0.75;93.52
69911;BME280;63555;49.920;17.868;2023-01-26T00:41:46;99330.97;;;-0.71;93.76
69911;BME280;63555;49.920;17.868;2023-01-26T00:47:06;99326.56;;;-0.66;94.03
69911;BME280;63555;49.920;17.868;2023-01-26T00:52:06;99323.91;;;-0.63;93.82
69911;BME280;63555;49.920;17.868;2023-01-26T00:57:07;99314.31;;;-0.58;94.05
69911;BME280;63555;49.920;17.868;2023-01-26T01:02:08;99309.94;;;-0.56;93.71
69911;BME280;63555;49.920;17.868;2023-01-26T01:07:08;99304.69;;;-0.53;93.82
69911;BME280;63555;49.920;17.868;2023-01-26T01:12:08;99310.63;;;-0.48;93.94
69911;BME280;63555;49.920;17.868;2023-01-26T01:17:09;99307.09;;;-0.45;94.09
69911;BME280;63555;49.920;17.868;2023-01-26T01:22:09;99313.94;;;-0.41;94.13
69911;BME280;63555;49.920;17.868;2023-01-26T01:27:09;99307.81;;;-0.39;93.87
69911;BME280;63555;49.920;17.868;2023-01-26T01:32:09;99303.50;;;-0.38;93.92
69911;BME280;63555;49.920;17.868;2023-01-26T01:37:10;99306.13;;;-0.40;93.81
69911;BME280;63555;49.920;17.868;2023-01-26T01:42:10;99299.31;;;-0.44;93.80
69911;BME280;63555;49.920;17.868;2023-01-26T01:47:18;99293.22;;;-0.43;93.81
69911;BME280;63555;49.920;17.868;2023-01-26T01:52:29;99281.13;;;-0.42;93.35
69911;BME280;63555;49.920;17.868;2023-01-26T01:57:36;99282.88;;;-0.43;93.59
69911;BME280;63555;49.920;17.868;2023-01-26T02:02:59;99283.75;;;-0.44;93.84
69911;BME280;63555;49.920;17.868;2023-01-26T02:08:18;99291.47;;;-0.41;93.80
69911;BME280;63555;49.920;17.868;2023-01-26T02:13:21;99279.34;;;-0.40;93.96
69911;BME280;63555;49.920;17.868;2023-01-26T02:18:22;99276.69;;;-0.37;93.82
69911;BME280;63555;49.920;17.868;2023-01-26T02:28:38;99259.44;;;-0.38;94.04
69911;BME280;63555;49.920;17.868;2023-01-26T02:33:39;99261.16;;;-0.37;93.58
69911;BME280;63555;49.920;17.868;2023-01-26T02:38:43;99250.84;;;-0.40;93.84
69911;BME280;63555;49.920;17.868;2023-01-26T02:43:44;99249.13;;;-0.40;93.60
69911;BME280;63555;49.920;17.868;2023-01-26T02:48:44;99258.59;;;-0.39;93.52
69911;BME280;63555;49.920;17.868;2023-01-26T02:54:03;99247.38;;;-0.39;93.80
69911;BME280;63555;49.920;17.868;2023-01-26T02:59:04;99239.72;;;-0.44;93.64
69911;BME280;63555;49.920;17.868;2023-01-26T03:04:05;99241.47;;;-0.44;93.67
69911;BME280;63555;49.920;17.868;2023-01-26T03:09:05;99226.03;;;-0.49;93.26
69911;BME280;63555;49.920;17.868;2023-01-26T03:14:05;99230.34;;;-0.49;93.09
69911;BME280;63555;49.920;17.868;2023-01-26T03:19:10;99219.09;;;-0.48;93.36
69911;BME280;63555;49.920;17.868;2023-01-26T03:24:38;99215.72;;;-0.52;93.43
69911;BME280;63555;49.920;17.868;2023-01-26T03:29:57;99206.34;;;-0.56;93.45
69911;BME280;63555;49.920;17.868;2023-01-26T03:34:57;99211.84;;;-0.70;92.76
69911;BME280;63555;49.920;17.868;2023-01-26T03:39:58;99214.75;;;-0.83;92.91
69911;BME280;63555;49.920;17.868;2023-01-26T03:45:17;99198.41;;;-0.85;93.29
69911;BME280;63555;49.920;17.868;2023-01-26T03:50:35;99195.81;;;-0.87;93.28
69911;BME280;63555;49.920;17.868;2023-01-26T03:55:54;99184.63;;;-0.89;93.49
69911;BME280;63555;49.920;17.868;2023-01-26T04:01:13;99183.75;;;-0.88;93.42
69911;BME280;63555;49.920;17.868;2023-01-26T04:06:19;99176.03;;;-0.89;93.20
69911;BME280;63555;49.920;17.868;2023-01-26T04:11:38;99173.47;;;-0.91;93.75
69911;BME280;63555;49.920;17.868;2023-01-26T04:16:39;99163.06;;;-0.89;93.33
69911;BME280;63555;49.920;17.868;2023-01-26T04:21:58;99164.81;;;-0.90;93.52
69911;BME280;63555;49.920;17.868;2023-01-26T04:26:59;99160.53;;;-0.91;93.67
69911;BME280;63555;49.920;17.868;2023-01-26T04:32:00;99151.06;;;-0.92;93.21
69911;BME280;63555;49.920;17.868;2023-01-26T04:37:00;99147.69;;;-0.96;93.44
69911;BME280;63555;49.920;17.868;2023-01-26T04:42:00;99152.78;;;-0.92;93.80
69911;BME280;63555;49.920;17.868;2023-01-26T04:47:01;99150.94;;;-0.87;93.39
69911;BME280;63555;49.920;17.868;2023-01-26T04:52:01;99150.94;;;-0.86;93.73
69911;BME280;63555;49.920;17.868;2023-01-26T04:57:02;99144.91;;;-0.86;93.71
69911;BME280;63555;49.920;17.868;2023-01-26T05:02:02;99146.63;;;-0.85;93.45
69911;BME280;63555;49.920;17.868;2023-01-26T05:07:03;99137.97;;;-0.84;93.76
69911;BME280;63555;49.920;17.868;2023-01-26T05:12:05;99138.00;;;-0.86;93.65
69911;BME280;63555;49.920;17.868;2023-01-26T05:17:24;99133.75;;;-0.90;93.27
69911;BME280;63555;49.920;17.868;2023-01-26T05:22:24;99132.91;;;-0.90;93.76
69911;BME280;63555;49.920;17.868;2023-01-26T05:27:24;99134.69;;;-0.92;93.43
69911;BME280;63555;49.920;17.868;2023-01-26T05:32:29;99135.50;;;-0.90;93.58
69911;BME280;63555;49.920;17.868;2023-01-26T05:37:29;99128.69;;;-0.94;93.40
69911;BME280;63555;49.920;17.868;2023-01-26T05:42:30;99134.72;;;-0.94;93.42
69911;BME280;63555;49.920;17.868;2023-01-26T05:47:30;99125.22;;;-0.93;93.64
69911;BME280;63555;49.920;17.868;2023-01-26T05:52:31;99128.66;;;-0.93;93.24
69911;BME280;63555;49.920;17.868;2023-01-26T05:57:31;99125.13;;;-0.90;93.58
69911;BME280;63555;49.920;17.868;2023-01-26T06:02:32;99131.97;;;-0.88;93.54
69911;BME280;63555;49.920;17.868;2023-01-26T06:07:32;99125.91;;;-0.85;93.84
69911;BME280;63555;49.920;17.868;2023-01-26T06:12:33;99131.91;;;-0.83;93.79
69911;BME280;63555;49.920;17.868;2023-01-26T06:17:34;99138.78;;;-0.82;93.82
69911;BME280;63555;49.920;17.868;2023-01-26T06:22:34;99132.75;;;-0.83;93.65
69911;BME280;63555;49.920;17.868;2023-01-26T06:27:35;99139.63;;;-0.82;93.74
69911;BME280;63555;49.920;17.868;2023-01-26T06:32:35;99142.16;;;-0.79;93.73
69911;BME280;63555;49.920;17.868;2023-01-26T06:37:36;99147.28;;;-0.77;93.66
69911;BME280;63555;49.920;17.868;2023-01-26T06:42:36;99132.56;;;-0.75;93.48
69911;BME280;63555;49.920;17.868;2023-01-26T06:47:37;99128.19;;;-0.73;93.99
69911;BME280;63555;49.920;17.868;2023-01-26T06:52:40;99122.91;;;-0.69;94.07
69911;BME280;63555;49.920;17.868;2023-01-26T06:57:41;99116.78;;;-0.65;93.68
69911;BME280;63555;49.920;17.868;2023-01-26T07:02:41;99120.13;;;-0.61;93.58
69911;BME280;63555;49.920;17.868;2023-01-26T07:07:41;99122.59;;;-0.56;93.88
69911;BME280;63555;49.920;17.868;2023-01-26T07:12:44;99124.22;;;-0.52;93.77
69911;BME280;63555;49.920;17.868;2023-01-26T07:17:44;99119.78;;;-0.47;93.77
69911;BME280;63555;49.920;17.868;2023-01-26T07:22:44;99112.69;;;-0.41;93.78
69911;BME280;63555;49.920;17.868;2023-01-26T07:27:45;99102.13;;;-0.33;93.85
69911;BME280;63555;49.920;17.868;2023-01-26T07:32:45;99104.63;;;-0.28;93.75
69911;BME280;63555;49.920;17.868;2023-01-26T07:37:45;99096.59;;;-0.19;93.84
69911;BME280;63555;49.920;17.868;2023-01-26T07:42:46;99098.94;;;-0.10;93.52
69911;BME280;63555;49.920;17.868;2023-01-26T07:47:46;99096.13;;;-0.03;93.94
69911;BME280;63555;49.920;17.868;2023-01-26T07:52:47;99101.09;;;0.07;93.87
69911;BME280;63555;49.920;17.868;2023-01-26T07:57:48;99097.38;;;0.15;93.65
69911;BME280;63555;49.920;17.868;2023-01-26T08:02:49;99094.53;;;0.24;94.03
69911;BME280;63555;49.920;17.868;2023-01-26T08:07:50;99096.78;;;0.37;94.11
69911;BME280;63555;49.920;17.868;2023-01-26T08:12:50;99094.72;;;0.48;93.78
69911;BME280;63555;49.920;17.868;2023-01-26T08:17:52;99091.75;;;0.60;93.94
69911;BME280;63555;49.920;17.868;2023-01-26T08:22:53;99091.47;;;0.69;93.81
69911;BME280;63555;49.920;17.868;2023-01-26T08:27:53;99089.44;;;0.79;94.13
69911;BME280;63555;49.920;17.868;2023-01-26T08:32:54;99090.03;;;0.88;94.21
69911;BME280;63555;49.920;17.868;2023-01-26T08:37:54;99073.22;;;1.00;93.80
69911;BME280;63555;49.920;17.868;2023-01-26T08:42:55;99074.56;;;1.12;94.31
69911;BME280;63555;49.920;17.868;2023-01-26T08:47:58;99073.13;;;1.30;94.41
69911;BME280;63555;49.920;17.868;2023-01-26T08:52:58;99081.94;;;1.50;94.15
69911;BME280;63555;49.920;17.868;2023-01-26T08:57:59;99082.25;;;1.66;94.63
69911;BME280;63555;49.920;17.868;2023-01-26T09:03:01;99083.91;;;1.69;94.34
69911;BME280;63555;49.920;17.868;2023-01-26T09:08:03;99082.22;;;1.68;93.61
69911;BME280;63555;49.920;17.868;2023-01-26T09:13:04;99078.31;;;1.81;94.04
69911;BME280;63555;49.920;17.868;2023-01-26T09:18:05;99081.44;;;1.90;94.43
69911;BME280;63555;49.920;17.868;2023-01-26T09:23:06;99074.78;;;2.07;93.76
69911;BME280;63555;49.920;17.868;2023-01-26T09:28:06;99083.09;;;2.16;93.85
69911;BME280;63555;49.920;17.868;2023-01-26T09:33:06;99076.31;;;2.36;93.84
69911;BME280;63555;49.920;17.868;2023-01-26T09:38:07;99069.38;;;2.58;94.20
69911;BME280;63555;49.920;17.868;2023-01-26T09:48:48;99059.44;;;2.46;93.34
69911;BME280;63555;49.920;17.868;2023-01-26T09:53:55;99056.59;;;2.52;93.38
69911;BME280;63555;49.920;17.868;2023-01-26T09:59:52;99054.97;;;2.73;94.20
69911;BME280;63555;49.920;17.868;2023-01-26T10:04:48;99057.25;;;3.02;94.75
69911;BME280;63555;49.920;17.868;2023-01-26T10:09:50;99055.72;;;3.18;94.68
69911;BME280;63555;49.920;17.868;2023-01-26T10:14:56;99053.97;;;3.19;94.01
69911;BME280;63555;49.920;17.868;2023-01-26T10:20:08;99041.91;;;3.16;93.79
69911;BME280;63555;49.920;17.868;2023-01-26T10:25:18;99043.53;;;3.19;93.92
69911;BME280;63555;49.920;17.868;2023-01-26T10:30:19;99029.84;;;3.14;94.19
69911;BME280;63555;49.920;17.868;2023-01-26T10:35:22;99033.25;;;3.16;94.05
69911;BME280;63555;49.920;17.868;2023-01-26T10:40:23;99030.41;;;3.00;93.36
69911;BME280;63555;49.920;17.868;2023-01-26T10:45:30;99027.88;;;2.99;93.84
69911;BME280;63555;49.920;17.868;2023-01-26T10:50:31;99024.09;;;3.06;93.84
69911;BME280;63555;49.920;17.868;2023-01-26T10:55:32;99024.41;;;2.98;93.57
69911;BME280;63555;49.920;17.868;2023-01-26T11:00:35;99028.00;;;2.96;93.55
69911;BME280;63555;49.920;17.868;2023-01-26T11:05:36;99017.84;;;3.10;94.25
69911;BME280;63555;49.920;17.868;2023-01-26T11:10:38;99014.22;;;3.14;93.67
69911;BME280;63555;49.920;17.868;2023-01-26T11:15:44;99010.44;;;3.21;93.83
69911;BME280;63555;49.920;17.868;2023-01-26T11:57:44;98960.78;;;3.04;93.74
69911;BME280;63555;49.920;17.868;2023-01-26T12:03:01;98968.41;;;2.88;93.65
69911;BME280;63555;49.920;17.868;2023-01-26T12:13:36;98956.41;;;2.84;93.87
69911;BME280;63555;49.920;17.868;2023-01-26T12:18:47;98949.63;;;2.80;93.43
69911;BME280;63555;49.920;17.868;2023-01-26T12:24:05;98944.31;;;2.83;93.55
69911;BME280;63555;49.920;17.868;2023-01-26T12:29:30;98931.53;;;2.77;93.35
69911;BME280;63555;49.920;17.868;2023-01-26T12:34:37;98929.19;;;2.71;93.04
69911;BME280;63555;49.920;17.868;2023-01-26T12:39:43;98924.06;;;2.69;93.43
69911;BME280;63555;49.920;17.868;2023-01-26T13:00:20;98920.84;;;2.63;93.00
69911;BME280;63555;49.920;17.868;2023-01-26T13:05:28;98917.81;;;2.51;93.58
69911;BME280;63555;49.920;17.868;2023-01-26T13:10:42;98928.28;;;2.50;93.83
69911;BME280;63555;49.920;17.868;2023-01-26T13:15:43;98925.94;;;2.44;93.24
69911;BME280;63555;49.920;17.868;2023-01-26T13:20:48;98922.84;;;2.34;93.88
69911;BME280;63555;49.920;17.868;2023-01-26T13:31:32;98926.41;;;2.32;93.59
69911;BME280;63555;49.920;17.868;2023-01-26T13:36:35;98922.31;;;2.26;93.65
69911;BME280;63555;49.920;17.868;2023-01-26T13:41:43;98920.84;;;2.19;93.36
69911;BME280;63555;49.920;17.868;2023-01-26T13:46:51;98929.75;;;2.13;93.49
69911;BME280;63555;49.920;17.868;2023-01-26T13:51:54;98935.25;;;2.06;93.75
69911;BME280;63555;49.920;17.868;2023-01-26T13:57:05;98923.50;;;1.96;92.95
69911;BME280;63555;49.920;17.868;2023-01-26T14:02:10;98916.03;;;1.86;93.75
69911;BME280;63555;49.920;17.868;2023-01-26T14:07:27;98919.84;;;1.78;92.92
69911;BME280;63555;49.920;17.868;2023-01-26T14:12:52;98916.81;;;1.65;92.80
69911;BME280;63555;49.920;17.868;2023-01-26T14:17:58;98906.03;;;1.52;92.74
69911;BME280;63555;49.920;17.868;2023-01-26T14:23:17;98916.06;;;1.38;92.96
69911;BME280;63555;49.920;17.868;2023-01-26T14:28:20;98910.09;;;1.36;93.61
69911;BME280;63555;49.920;17.868;2023-01-26T14:33:22;98910.94;;;1.37;93.48
69911;BME280;63555;49.920;17.868;2023-01-26T14:38:24;98906.69;;;1.34;93.33
69911;BME280;63555;49.920;17.868;2023-01-26T14:43:27;98911.22;;;1.29;93.26
69911;BME280;63555;49.920;17.868;2023-01-26T14:48:31;98907.81;;;1.27;93.75
69911;BME280;63555;49.920;17.868;2023-01-26T14:53:33;98903.53;;;1.26;93.65
69911;BME280;63555;49.920;17.868;2023-01-26T14:58:34;98903.81;;;1.18;93.34
69911;BME280;63555;49.920;17.868;2023-01-26T15:03:36;98903.19;;;1.12;93.79
69911;BME280;63555;49.920;17.868;2023-01-26T15:08:38;98905.03;;;1.08;93.41
69911;BME280;63555;49.920;17.868;2023-01-26T15:13:40;98902.81;;;0.98;93.86
69911;BME280;63555;49.920;17.868;2023-01-26T15:18:40;98909.13;;;0.90;93.26
69911;BME280;63555;49.920;17.868;2023-01-26T15:23:48;98916.28;;;0.82;93.06
69911;BME280;63555;49.920;17.868;2023-01-26T15:28:50;98913.19;;;0.71;93.36
69911;BME280;63555;49.920;17.868;2023-01-26T15:33:53;98904.88;;;0.61;93.00
69911;BME280;63555;49.920;17.868;2023-01-26T15:38:57;98919.75;;;0.56;93.28
69911;BME280;63555;49.920;17.868;2023-01-26T15:43:58;98917.25;;;0.53;93.29
69911;BME280;63555;49.920;17.868;2023-01-26T15:48:58;98924.28;;;0.50;93.81
69911;BME280;63555;49.920;17.868;2023-01-26T15:53:59;98914.22;;;0.41;93.60
69911;BME280;63555;49.920;17.868;2023-01-26T15:59:00;98916.19;;;0.32;93.20
69911;BME280;63555;49.920;17.868;2023-01-26T16:04:01;98922.47;;;0.25;93.50
69911;BME280;63555;49.920;17.868;2023-01-26T16:09:01;98921.78;;;0.20;93.48
69911;BME280;63555;49.920;17.868;2023-01-26T16:14:01;98923.63;;;0.17;93.43
69911;BME280;63555;49.920;17.868;2023-01-26T16:19:02;98926.34;;;0.12;93.56
69911;BME280;63555;49.920;17.868;2023-01-26T16:24:02;98926.34;;;0.12;93.66
69911;BME280;63555;49.920;17.868;2023-01-26T16:29:03;98924.75;;;0.08;93.33
69911;BME280;63555;49.920;17.868;2023-01-26T16:34:03;98923.91;;;0.08;93.41
69911;BME280;63555;49.920;17.868;2023-01-26T16:39:04;98922.16;;;0.08;93.55
69911;BME280;63555;49.920;17.868;2023-01-26T16:44:12;98916.13;;;0.08;93.51
69911;BME280;63555;49.920;17.868;2023-01-26T16:49:13;98911.09;;;0.03;93.27
69911;BME280;63555;49.920;17.868;2023-01-26T16:54:14;98918.22;;;-0.05;93.48
69911;BME280;63555;49.920;17.868;2023-01-26T16:59:15;98913.00;;;-0.04;93.53
69911;BME280;63555;49.920;17.868;2023-01-26T17:04:18;98910.41;;;-0.04;93.27
69911;BME280;63555;49.920;17.868;2023-01-26T17:09:18;98917.50;;;-0.10;93.36
69911;BME280;63555;49.920;17.868;2023-01-26T17:14:20;98909.81;;;-0.13;93.21
69911;BME280;63555;49.920;17.868;2023-01-26T17:19:20;98913.50;;;-0.20;93.32
69911;BME280;63555;49.920;17.868;2023-01-26T17:24:21;98906.72;;;-0.24;93.40
69911;BME280;63555;49.920;17.868;2023-01-26T17:29:21;98908.50;;;-0.26;93.45
69911;BME280;63555;49.920;17.868;2023-01-26T17:34:22;98908.63;;;-0.31;93.57
69911;BME280;63555;49.920;17.868;2023-01-26T17:39:22;98912.06;;;-0.30;93.31
69911;BME280;63555;49.920;17.868;2023-01-26T17:44:23;98920.75;;;-0.32;93.36
69911;BME280;63555;49.920;17.868;2023-01-26T17:49:24;98919.84;;;-0.30;93.45
69911;BME280;63555;49.920;17.868;2023-01-26T17:54:24;98918.88;;;-0.26;93.43
69911;BME280;63555;49.920;17.868;2023-01-26T17:59:25;98923.19;;;-0.27;93.22
69911;BME280;63555;49.920;17.868;2023-01-26T18:04:25;98924.94;;;-0.27;93.40
69911;BME280;63555;49.920;17.868;2023-01-26T18:09:25;98936.19;;;-0.28;93.21
69911;BME280;63555;49.920;17.868;2023-01-26T18:14:26;98925.88;;;-0.30;93.28
69911;BME280;63555;49.920;17.868;2023-01-26T18:19:26;98933.59;;;-0.28;93.12
69911;BME280;63555;49.920;17.868;2023-01-26T18:24:26;98940.56;;;-0.30;92.97
69911;BME280;63555;49.920;17.868;2023-01-26T18:29:27;98934.59;;;-0.33;93.28
69911;BME280;63555;49.920;17.868;2023-01-26T18:34:27;98928.56;;;-0.33;93.16
69911;BME280;63555;49.920;17.868;2023-01-26T18:39:27;98923.47;;;-0.36;92.99
69911;BME280;63555;49.920;17.868;2023-01-26T18:44:29;98935.63;;;-0.38;93.18
69911;BME280;63555;49.920;17.868;2023-01-26T18:49:29;98934.72;;;-0.37;93.21
69911;BME280;63555;49.920;17.868;2023-01-26T18:54:29;98926.09;;;-0.38;93.09
69911;BME280;63555;49.920;17.868;2023-01-26T18:59:30;98928.72;;;-0.39;93.08
69911;BME280;63555;49.920;17.868;2023-01-26T19:04:30;98933.16;;;-0.43;93.02
69911;BME280;63555;49.920;17.868;2023-01-26T19:09:31;98928.94;;;-0.47;92.83
69911;BME280;63555;49.920;17.868;2023-01-26T19:14:35;98932.41;;;-0.46;93.15
69911;BME280;63555;49.920;17.868;2023-01-26T19:19:35;98942.03;;;-0.51;93.14
69911;BME280;63555;49.920;17.868;2023-01-26T19:24:36;98933.50;;;-0.55;92.83
69911;BME280;63555;49.920;17.868;2023-01-26T19:29:36;98932.66;;;-0.55;92.80
69911;BME280;63555;49.920;17.868;2023-01-26T19:34:37;98927.34;;;-0.51;92.79
69911;BME280;63555;49.920;17.868;2023-01-26T19:39:37;98935.97;;;-0.50;93.18
69911;BME280;63555;49.920;17.868;2023-01-26T19:44:37;98927.47;;;-0.55;92.90
69911;BME280;63555;49.920;17.868;2023-01-26T19:49:38;98923.28;;;-0.59;92.94
69911;BME280;63555;49.920;17.868;2023-01-26T19:54:39;98926.66;;;-0.57;92.97
69911;BME280;63555;49.920;17.868;2023-01-26T19:59:40;98918.06;;;-0.58;92.86
69911;BME280;63555;49.920;17.868;2023-01-26T20:04:40;98921.50;;;-0.57;92.69
69911;BME280;63555;49.920;17.868;2023-01-26T20:09:42;98923.22;;;-0.58;92.85
69911;BME280;63555;49.920;17.868;2023-01-26T20:14:42;98923.31;;;-0.61;92.74
69911;BME280;63555;49.920;17.868;2023-01-26T20:19:43;98923.34;;;-0.62;92.82
69911;BME280;63555;49.920;17.868;2023-01-26T20:24:43;98919.06;;;-0.63;92.62
69911;BME280;63555;49.920;17.868;2023-01-26T20:29:44;98914.88;;;-0.68;92.77
69911;BME280;63555;49.920;17.868;2023-01-26T20:34:44;98910.66;;;-0.72;92.71
69911;BME280;63555;49.920;17.868;2023-01-26T20:39:44;98906.47;;;-0.76;92.50
69911;BME280;63555;49.920;17.868;2023-01-26T20:44:45;98910.00;;;-0.78;92.63
69911;BME280;63555;49.920;17.868;2023-01-26T20:49:45;98896.16;;;-0.77;92.83
69911;BME280;63555;49.920;17.868;2023-01-26T20:54:45;98892.69;;;-0.76;92.63
69911;BME280;63555;49.920;17.868;2023-01-26T20:59:46;98897.97;;;-0.81;92.73
69911;BME280;63555;49.920;17.868;2023-01-26T21:04:46;98899.84;;;-0.86;92.71
69911;BME280;63555;49.920;17.868;2023-01-26T21:09:47;98900.72;;;-0.87;92.63
69911;BME280;63555;49.920;17.868;2023-01-26T21:14:47;98899.84;;;-0.86;92.73
69911;BME280;63555;49.920;17.868;2023-01-26T21:19:47;98892.94;;;-0.87;92.56
69911;BME280;63555;49.920;17.868;2023-01-26T21:24:48;98887.75;;;-0.85;92.48
69911;BME280;63555;49.920;17.868;2023-01-26T21:29:48;98890.31;;;-0.84;92.75
69911;BME280;63555;49.920;17.868;2023-01-26T21:34:49;98893.69;;;-0.82;92.62
69911;BME280;63555;49.920;17.868;2023-01-26T21:39:49;98894.59;;;-0.83;92.71
69911;BME280;63555;49.920;17.868;2023-01-26T21:44:49;98887.72;;;-0.84;92.88
69911;BME280;63555;49.920;17.868;2023-01-26T21:50:08;98889.44;;;-0.84;92.50
69911;BME280;63555;49.920;17.868;2023-01-26T21:55:09;98886.00;;;-0.85;92.66
69911;BME280;63555;49.920;17.868;2023-01-26T22:00:10;98886.06;;;-0.88;92.01
69911;BME280;63555;49.920;17.868;2023-01-26T22:05:10;98878.34;;;-0.89;92.67
69911;BME280;63555;49.920;17.868;2023-01-26T22:10:10;98873.97;;;-0.87;92.89
69911;BME280;63555;49.920;17.868;2023-01-26T22:15:11;98871.44;;;-0.89;92.71
69911;BME280;63555;49.920;17.868;2023-01-26T22:20:11;98871.44;;;-0.89;92.57
69911;BME280;63555;49.920;17.868;2023-01-26T22:25:12;98872.28;;;-0.88;92.56
69911;BME280;63555;49.920;17.868;2023-01-26T22:30:12;98870.59;;;-0.89;92.46
69911;BME280;63555;49.920;17.868;2023-01-26T22:35:13;98873.22;;;-0.91;92.71
69911;BME280;63555;49.920;17.868;2023-01-26T22:40:13;98861.06;;;-0.89;92.71
69911;BME280;63555;49.920;17.868;2023-01-26T22:45:14;98867.06;;;-0.87;92.57
69911;BME280;63555;49.920;17.868;2023-01-26T22:50:15;98860.19;;;-0.88;92.75
69911;BME280;63555;49.920;17.868;2023-01-26T22:55:15;98861.91;;;-0.88;92.59
69911;BME280;63555;49.920;17.868;2023-01-26T23:00:16;98867.94;;;-0.86;92.63
69911;BME280;63555;49.920;17.868;2023-01-26T23:05:16;98863.63;;;-0.86;93.08
69911;BME280;63555;49.920;17.868;2023-01-26T23:10:17;98855.00;;;-0.86;92.59
69911;BME280;63555;49.920;17.868;2023-01-26T23:15:17;98851.56;;;-0.88;92.67
69911;BME280;63555;49.920;17.868;2023-01-26T23:20:19;98849.84;;;-0.88;92.68
69911;BME280;63555;49.920;17.868;2023-01-26T23:25:20;98851.69;;;-0.93;92.57
69911;BME280;63555;49.920;17.868;2023-01-26T23:30:39;98850.81;;;-0.92;92.72
69911;BME280;63555;49.920;17.868;2023-01-26T23:35:39;98855.13;;;-0.92;92.82
69911;BME280;63555;49.920;17.868;2023-01-26T23:40:42;98845.69;;;-0.93;92.60
69911;BME280;63555;49.920;17.868;2023-01-26T23:45:44;98850.00;;;-0.94;92.39
69911;BME280;63555;49.920;17.868;2023-01-26T23:50:44;98848.34;;;-0.97;92.55
69911;BME280;63555;49.920;17.868;2023-01-26T23:55:45;98845.81;;;-0.98;92.26
